(°C)
15°
16°
16°
16°
16°
16°
16°
(°C)
13°
13°
13°
13°
12°
12°
12°
شرق
شرق
ESE
شرق
شرق
شرق
ENE
(كم/سا)
14-25
16-28
16-28
16-28
15-28
14-27
14-27
(مم)
0
0
0
0
0
0
0
(%)
14
13
13
0
1
1
1

Sun elevation

/ 40.4°
sun-icon
UV 3
05:29
19:41
هلال الصباح (81°)
09:36
02:22

METAR for 52.17°شمال 20.97°شرق (EPWA)

الوقت Conditions درجة الحرارة/
نقطة الندى
رياح مجال رؤية حالة الطقس غيوم الضغط Change Raw
VFR 14°C / 9°C 60º variable 040º to 100º 7kt >10km - Clouds and Visibility OK 1018 No Significant change EPWA 190800Z 06007KT 040V100 CAVOK 14/09 Q1018 NOSIG
VFR 14°C / 8°C 40º 5kt >10km - Clouds and Visibility OK 1018 No Significant change EPWA 190730Z 04005KT CAVOK 14/08 Q1018 NOSIG
VFR 12°C / 8°C 20º variable 350º to 050º 4kt >10km - Clouds and Visibility OK 1017 No Significant change EPWA 190700Z 02004KT 350V050 CAVOK 12/08 Q1017 NOSIG
VFR 11°C / 8°C 10º 7kt >10km - Clouds and Visibility OK 1018 No Significant change EPWA 190630Z 01007KT CAVOK 11/08 Q1018 NOSIG
VFR 10°C / 8°C 60º variable 020º to 090º 5kt >10km - Few Clouds 600ft 1018 No Significant change EPWA 190600Z 06005KT 020V090 9999 FEW006 10/08 Q1018 NOSIG
MVFR 9°C / 8°C 60º 6kt 8000m - Few Clouds 500ft 1018 No Significant change EPWA 190530Z 06006KT 8000 FEW005 09/08 Q1018 NOSIG
MVFR 9°C / 8°C 70º variable 050º to 120º 4kt 7000m - Clear 1018 No Significant change EPWA 190500Z 07004KT 050V120 7000 NSC 09/08 Q1018 NOSIG
MVFR 7°C / 7°C variable 2kt 7000m shallow Fog Clear 1018 No Significant change EPWA 190430Z VRB02KT 7000 MIFG NSC 07/07 Q1018 NOSIG
MVFR 7°C / 7°C 70º variable 030º to 140º 3kt 8000m shallow Fog Clear 1018 Temporary: Visibility 3000. Mist . EPWA 190400Z 07003KT 030V140 8000 MIFG NSC 07/07 Q1018 TEMPO 3000 BR
MVFR 7°C / 7°C 10º 3kt 8000m shallow Fog Clear 1017 Temporary: Visibility 3000. Mist . EPWA 190330Z 01003KT 8000 MIFG NSC 07/07 Q1017 TEMPO 3000 BR
VFR 6°C / 6°C 360º 3kt >10km shallow Fog Clear 1017 No Significant change EPWA 190300Z 36003KT 9999 MIFG NSC 06/06 Q1017 NOSIG
VFR 7°C / 7°C 350º 3kt >10km shallow Fog Clear 1017 No Significant change EPWA 190230Z 35003KT 9999 MIFG NSC 07/07 Q1017 NOSIG
VFR 7°C / 7°C 330º 3kt >10km shallow Fog Clear 1018 No Significant change EPWA 190200Z 33003KT 9999 MIFG NSC 07/07 Q1018 NOSIG
VFR 8°C / 7°C 320º 4kt >10km shallow Fog Clear 1018 No Significant change EPWA 190130Z 32004KT 9999 MIFG NSC 08/07 Q1018 NOSIG
VFR 8°C / 8°C 330º 4kt >10km shallow Fog Clear 1018 Becoming: Visibility 4000. Mist . EPWA 190100Z 33004KT 9999 MIFG NSC 08/08 Q1018 BECMG 4000 BR
VFR 9°C / 8°C 340º 5kt >10km - Clouds and Visibility OK 1017 No Significant change EPWA 190030Z 34005KT CAVOK 09/08 Q1017 NOSIG
VFR 9°C / 8°C 320º 5kt >10km - Clouds and Visibility OK 1018 No Significant change EPWA 190000Z 32005KT CAVOK 09/08 Q1018 NOSIG
VFR 9°C / 9°C 250º 7kt >10km - Clouds and Visibility OK 1018 No Significant change EPWA 182330Z 25007KT CAVOK 09/09 Q1018 NOSIG
MVFR 9°C / 9°C 270º variable 220º to 300º 5kt 7000m Light Showers Rain Broken Clouds 4800ft 1019 No Significant change EPWA 182300Z 27005KT 220V300 7000 -SHRA BKN048CB 09/09 Q1019 NOSIG
VFR 9°C / 9°C variable 2kt 9000m Light Showers Rain Broken Clouds 4000ft 1019 Temporary: Showers Rain . EPWA 182230Z VRB02KT 9000 -SHRA BKN040CB 09/09 Q1019 RETS TEMPO SHRA
MVFR 9°C / 9°C 210º variable 150º to 280º 6kt 8000m Light Thunderstorm Rain Broken Clouds 3000ft 1019 Temporary: Showers Rain . EPWA 182200Z 21006KT 150V280 8000 -TSRA BKN030CB 09/09 Q1019 RESHRA TEMPO SHRA
MVFR 10°C / 9°C 110º 11kt 6000m Thunderstorm Rain Broken Clouds 1500ft 1020 Temporary: Visibility 5000. Thunderstorm Rain . Broken Clouds 1000ft. EPWA 182130Z 11011KT 6000 TSRA BKN015CB 10/09 Q1020 TEMPO 5000 TSRA BKN010
MVFR 10°C / 8°C 330º 5kt 8000m Thunderstorm Rain Broken Clouds 4000ft 1019 No Significant change EPWA 182100Z 33005KT 8000 TSRA BKN040CB 10/08 Q1019 NOSIG
VFR 10°C / 7°C 290º 5kt >10km Light Showers Rain Few Clouds 4800ft 1018 Temporary: Thunderstorm Rain . EPWA 182030Z 29005KT 9999 -SHRA FEW048CB 10/07 Q1018 TEMPO TSRA

VFR

14°C / 9°C

[أكثر]
رياح 60º variable 040º to 100º 7kt
مجال رؤية >10km
حالة الطقس -
غيوم Clouds and Visibility OK
الضغط 1018
Change No Significant change
Raw EPWA 190800Z 06007KT 040V100 CAVOK 14/09 Q1018 NOSIG

VFR

14°C / 8°C

[أكثر]
رياح 40º 5kt
مجال رؤية >10km
حالة الطقس -
غيوم Clouds and Visibility OK
الضغط 1018
Change No Significant change
Raw EPWA 190730Z 04005KT CAVOK 14/08 Q1018 NOSIG

VFR

12°C / 8°C

[أكثر]
رياح 20º variable 350º to 050º 4kt
مجال رؤية >10km
حالة الطقس -
غيوم Clouds and Visibility OK
الضغط 1017
Change No Significant change
Raw EPWA 190700Z 02004KT 350V050 CAVOK 12/08 Q1017 NOSIG

VFR

11°C / 8°C

[أكثر]
رياح 10º 7kt
مجال رؤية >10km
حالة الطقس -
غيوم Clouds and Visibility OK
الضغط 1018
Change No Significant change
Raw EPWA 190630Z 01007KT CAVOK 11/08 Q1018 NOSIG

VFR

10°C / 8°C

[أكثر]
رياح 60º variable 020º to 090º 5kt
مجال رؤية >10km
حالة الطقس -
غيوم Few Clouds 600ft
الضغط 1018
Change No Significant change
Raw EPWA 190600Z 06005KT 020V090 9999 FEW006 10/08 Q1018 NOSIG

MVFR

9°C / 8°C

[أكثر]
رياح 60º 6kt
مجال رؤية 8000m
حالة الطقس -
غيوم Few Clouds 500ft
الضغط 1018
Change No Significant change
Raw EPWA 190530Z 06006KT 8000 FEW005 09/08 Q1018 NOSIG

MVFR

9°C / 8°C

[أكثر]
رياح 70º variable 050º to 120º 4kt
مجال رؤية 7000m
حالة الطقس -
غيوم Clear
الضغط 1018
Change No Significant change
Raw EPWA 190500Z 07004KT 050V120 7000 NSC 09/08 Q1018 NOSIG

MVFR

7°C / 7°C

[أكثر]
رياح variable 2kt
مجال رؤية 7000m
حالة الطقس shallow Fog
غيوم Clear
الضغط 1018
Change No Significant change
Raw EPWA 190430Z VRB02KT 7000 MIFG NSC 07/07 Q1018 NOSIG

MVFR

7°C / 7°C

[أكثر]
رياح 70º variable 030º to 140º 3kt
مجال رؤية 8000m
حالة الطقس shallow Fog
غيوم Clear
الضغط 1018
Change Temporary: Visibility 3000. Mist .
Raw EPWA 190400Z 07003KT 030V140 8000 MIFG NSC 07/07 Q1018 TEMPO 3000 BR

MVFR

7°C / 7°C

[أكثر]
رياح 10º 3kt
مجال رؤية 8000m
حالة الطقس shallow Fog
غيوم Clear
الضغط 1017
Change Temporary: Visibility 3000. Mist .
Raw EPWA 190330Z 01003KT 8000 MIFG NSC 07/07 Q1017 TEMPO 3000 BR

VFR

6°C / 6°C

[أكثر]
رياح 360º 3kt
مجال رؤية >10km
حالة الطقس shallow Fog
غيوم Clear
الضغط 1017
Change No Significant change
Raw EPWA 190300Z 36003KT 9999 MIFG NSC 06/06 Q1017 NOSIG

VFR

7°C / 7°C

[أكثر]
رياح 350º 3kt
مجال رؤية >10km
حالة الطقس shallow Fog
غيوم Clear
الضغط 1017
Change No Significant change
Raw EPWA 190230Z 35003KT 9999 MIFG NSC 07/07 Q1017 NOSIG

VFR

7°C / 7°C

[أكثر]
رياح 330º 3kt
مجال رؤية >10km
حالة الطقس shallow Fog
غيوم Clear
الضغط 1018
Change No Significant change
Raw EPWA 190200Z 33003KT 9999 MIFG NSC 07/07 Q1018 NOSIG

VFR

8°C / 7°C

[أكثر]
رياح 320º 4kt
مجال رؤية >10km
حالة الطقس shallow Fog
غيوم Clear
الضغط 1018
Change No Significant change
Raw EPWA 190130Z 32004KT 9999 MIFG NSC 08/07 Q1018 NOSIG

VFR

8°C / 8°C

[أكثر]
رياح 330º 4kt
مجال رؤية >10km
حالة الطقس shallow Fog
غيوم Clear
الضغط 1018
Change Becoming: Visibility 4000. Mist .
Raw EPWA 190100Z 33004KT 9999 MIFG NSC 08/08 Q1018 BECMG 4000 BR

VFR

9°C / 8°C

[أكثر]
رياح 340º 5kt
مجال رؤية >10km
حالة الطقس -
غيوم Clouds and Visibility OK
الضغط 1017
Change No Significant change
Raw EPWA 190030Z 34005KT CAVOK 09/08 Q1017 NOSIG

VFR

9°C / 8°C

[أكثر]
رياح 320º 5kt
مجال رؤية >10km
حالة الطقس -
غيوم Clouds and Visibility OK
الضغط 1018
Change No Significant change
Raw EPWA 190000Z 32005KT CAVOK 09/08 Q1018 NOSIG

VFR

9°C / 9°C

[أكثر]
رياح 250º 7kt
مجال رؤية >10km
حالة الطقس -
غيوم Clouds and Visibility OK
الضغط 1018
Change No Significant change
Raw EPWA 182330Z 25007KT CAVOK 09/09 Q1018 NOSIG

MVFR

9°C / 9°C

[أكثر]
رياح 270º variable 220º to 300º 5kt
مجال رؤية 7000m
حالة الطقس Light Showers Rain
غيوم Broken Clouds 4800ft
الضغط 1019
Change No Significant change
Raw EPWA 182300Z 27005KT 220V300 7000 -SHRA BKN048CB 09/09 Q1019 NOSIG

VFR

9°C / 9°C

[أكثر]
رياح variable 2kt
مجال رؤية 9000m
حالة الطقس Light Showers Rain
غيوم Broken Clouds 4000ft
الضغط 1019
Change Temporary: Showers Rain .
Raw EPWA 182230Z VRB02KT 9000 -SHRA BKN040CB 09/09 Q1019 RETS TEMPO SHRA

MVFR

9°C / 9°C

[أكثر]
رياح 210º variable 150º to 280º 6kt
مجال رؤية 8000m
حالة الطقس Light Thunderstorm Rain
غيوم Broken Clouds 3000ft
الضغط 1019
Change Temporary: Showers Rain .
Raw EPWA 182200Z 21006KT 150V280 8000 -TSRA BKN030CB 09/09 Q1019 RESHRA TEMPO SHRA

MVFR

10°C / 9°C

[أكثر]
رياح 110º 11kt
مجال رؤية 6000m
حالة الطقس Thunderstorm Rain
غيوم Broken Clouds 1500ft
الضغط 1020
Change Temporary: Visibility 5000. Thunderstorm Rain . Broken Clouds 1000ft.
Raw EPWA 182130Z 11011KT 6000 TSRA BKN015CB 10/09 Q1020 TEMPO 5000 TSRA BKN010

MVFR

10°C / 8°C

[أكثر]
رياح 330º 5kt
مجال رؤية 8000m
حالة الطقس Thunderstorm Rain
غيوم Broken Clouds 4000ft
الضغط 1019
Change No Significant change
Raw EPWA 182100Z 33005KT 8000 TSRA BKN040CB 10/08 Q1019 NOSIG

VFR

10°C / 7°C

[أكثر]
رياح 290º 5kt
مجال رؤية >10km
حالة الطقس Light Showers Rain
غيوم Few Clouds 4800ft
الضغط 1018
Change Temporary: Thunderstorm Rain .
Raw EPWA 182030Z 29005KT 9999 -SHRA FEW048CB 10/07 Q1018 TEMPO TSRA

TAF for 52.17°شمال 20.97°شرق (EPWA)

From till


From till Wind variable 3kt. Visibility 10km or more. Scattered Clouds 4000ft.
Becoming from till Wind 90º 10kt. Visibility 10km or more. Scattered Clouds 4000ft.

Raw: TAF EPWA 190530Z 1906/2006 VRB03KT 9999 SCT040 BECMG 1907/1909 09010KT

Current satellite and rain images for 52.17°شمال 20.97°شرق

  • هطول:
  • <1 مم
  • 1-2 مم
  • 2-5 مم
  • >5 مم

المؤشر يدل على موقع 52.17°شمال 20.97°شرق. [أكثر]

The real-time satellite image combines visible light during daytime with infrared radiation during nighttime. At night, the image is not dark as infrared radiation can detect temperature differences. Unfortunately, low clouds and fog are difficult to distinguish from ground temperatures and thus can be almost invisible during the night. Meteosat satellite images for Europe are updated in real-time every 5 minutes. GOES-16/GOES-17 (North & South America) and Himawari (Asia) images update every 10 minutes.

يقدر هطول الأمطار من الرادار والأقمار الصناعية. تقديرات هطول الأمطار ليلا من قبل الأقمار الصناعية هي أقل دقة من النهار. اللون البرتقالي يعبر الأماكن حيث تم الكشف عن البرق (أكثر من أوروبا).

حقوق النسخ 2021 EUMETSAT / meteoblue. بيانات البرق مقدمة من nowcast.